EKKA

Details ICAO EKKA (KRP)
Name KARUP INT
Region Denmark / Faroe Islands
Timezone Europe/Copenhagen (UTC+2.0)
Plans Departing 29
Arriving 34
Stats Elevation 170 ft / 52 m (AMSL)
Location 56.299106° 9.110618°
Runways 5
Magnetic Variation 2.575° E
Sunrise 2018-05-21 03:00:11 UTC / 2018-05-21 05:00:11 Local
Sunset 2018-05-21 19:42:57 UTC / 2018-05-21 21:42:57 Local
Advertisement - Login to hide

Runways

ID Width Length Bearing (true) Bearing (mag) Surface Threshold Offset Overrun Length
04 49 ft / 15 m 3,044 ft / 928 m 33.66° 31.09° Asphalt 0 ft / 0 m 0 ft / 0 m
09 197 ft / 60 m 2,792 ft / 851 m 89.99° 87.42° Grass 0 ft / 0 m 0 ft / 0 m
09L 75 ft / 23 m 9,786 ft / 2,983 m 89.30° 86.73° Asphalt 0 ft / 0 m 466 ft / 142 m
09R 151 ft / 46 m 9,577 ft / 2,919 m 89.31° 86.74° Asphalt 0 ft / 0 m 755 ft / 230 m
14 59 ft / 18 m 2,300 ft / 701 m 134.84° 132.27° Asphalt 0 ft / 0 m 0 ft / 0 m
22 49 ft / 15 m 3,044 ft / 928 m 213.66° 211.09° Asphalt 0 ft / 0 m 0 ft / 0 m
27 197 ft / 60 m 2,792 ft / 851 m 270.01° 267.44° Grass 0 ft / 0 m 0 ft / 0 m
27L 151 ft / 46 m 9,577 ft / 2,919 m 269.35° 266.78° Asphalt 0 ft / 0 m 745 ft / 227 m
27R 75 ft / 23 m 9,786 ft / 2,983 m 269.34° 266.77° Asphalt 0 ft / 0 m 574 ft / 175 m
32 59 ft / 18 m 2,300 ft / 701 m 314.84° 312.27° Asphalt 0 ft / 0 m 0 ft / 0 m

Approach Navaids

Runway Type Ident Frequency Range Bearing (true) Bearing (mag) Slope Elevation
09R Localiser KAP 108.30 MHz 18 nm / 33 km 89.35° 86.78° - 170 ft / 52 m (AMSL)
09R Glidescope KAP 108.30 MHz 10 nm / 19 km 89.33° 86.76° 2.75° 170 ft / 52 m (AMSL)
27L Localiser KR 108.15 MHz 18 nm / 33 km 269.31° 266.73° - 170 ft / 52 m (AMSL)
27L Glidescope KR 108.15 MHz 10 nm / 19 km 269.33° 266.76° 2.75° 170 ft / 52 m (AMSL)

Map

Weather


0- 5 10 15 20 25 30 35+ Temperature / ° C

Clouds and Precipitation
Forecast for 2018-05-21 18:00 UTC. Updated 3 hours ago

Ground ~20,000 ft ~40,000 ft Winds

METAR

EKKA 212020Z AUTO 08002KT 9999NDV BKN240/// 15/08 Q1021

TAF

TAF EKKA 212006Z 2121/2218 12006KT 9999 BKN180= TAF EKSP 212006Z 2121/2218 10010KT 9999 BKN200

Frequencies

Tower 119.57 MHz TWR
Approach 120.42 MHz APP
Warning: Do not use this data for real-world aviation or navigation. No guarantee of current accuracy is given.